createdAt,value
2022-12-18T00:01:25.471Z,69.30
2022-12-18T00:03:54.597Z,70.57
2022-12-18T00:06:22.769Z,70.95
2022-12-18T00:08:50.478Z,68.55
2022-12-18T00:11:21.351Z,70.50
2022-12-18T00:13:49.457Z,69.25
2022-12-18T00:16:21.716Z,65.80
2022-12-18T00:18:50.995Z,65.95
2022-12-18T00:21:18.426Z,70.20
2022-12-18T00:23:47.199Z,78.43
2022-12-18T00:26:27.657Z,78.05
2022-12-18T00:29:04.185Z,75.77
2022-12-18T00:31:33.130Z,80.07
2022-12-18T00:34:02.073Z,81.85
2022-12-18T00:36:35.881Z,86.10
2022-12-18T00:39:05.387Z,80.10
2022-12-18T00:41:51.367Z,89.33
2022-12-18T00:44:19.983Z,79.32
2022-12-18T00:46:48.807Z,79.00
2022-12-18T00:49:20.850Z,81.15
2022-12-18T00:51:48.832Z,81.32
2022-12-18T00:54:16.652Z,74.43
2022-12-18T00:56:50.974Z,90.03
2022-12-18T00:59:19.455Z,76.95
2022-12-18T01:01:47.641Z,79.68
2022-12-18T01:04:15.783Z,74.20
2022-12-18T01:06:45.929Z,83.77
2022-12-18T01:09:13.022Z,75.13
2022-12-18T01:11:40.246Z,80.88
2022-12-18T01:14:07.526Z,70.72
2022-12-18T01:16:34.620Z,79.75
2022-12-18T01:19:01.700Z,79.80
2022-12-18T01:21:28.894Z,80.38
2022-12-18T01:23:57.790Z,77.72
2022-12-18T01:26:28.312Z,77.82
2022-12-18T01:28:57.235Z,84.32
2022-12-18T01:31:28.373Z,86.00
2022-12-18T01:33:56.731Z,76.88
2022-12-18T01:36:28.160Z,78.82
2022-12-18T01:38:56.639Z,72.30
2022-12-18T01:41:27.550Z,77.03
2022-12-18T01:44:00.641Z,76.43
2022-12-18T01:46:28.994Z,79.45
2022-12-18T01:49:00.747Z,78.57
2022-12-18T01:51:31.281Z,80.15
2022-12-18T01:53:59.546Z,83.20
2022-12-18T01:56:26.635Z,80.90
2022-12-18T01:59:03.823Z,74.93
2022-12-18T02:01:32.694Z,78.65
2022-12-18T02:04:26.225Z,77.38
2022-12-18T02:07:09.934Z,76.78
2022-12-18T02:09:49.507Z,71.83
2022-12-18T02:12:25.108Z,74.25
2022-12-18T02:15:41.613Z,76.63
2022-12-18T02:18:25.118Z,72.05
2022-12-18T02:21:25.833Z,75.97
2022-12-18T02:24:19.422Z,73.47
2022-12-18T02:27:01.809Z,70.68
2022-12-18T02:29:39.214Z,72.05
2022-12-18T02:32:13.962Z,75.43
2022-12-18T02:34:42.397Z,82.15
2022-12-18T02:37:18.987Z,81.00
2022-12-18T02:39:49.410Z,71.90
2022-12-18T02:42:19.016Z,73.07
2022-12-18T02:44:51.439Z,74.55
2022-12-18T02:47:26.930Z,72.18
2022-12-18T02:50:33.948Z,75.83
2022-12-18T02:53:31.712Z,70.50
2022-12-18T02:56:13.051Z,67.10
2022-12-18T02:59:24.346Z,67.82
2022-12-18T03:02:17.084Z,66.22
2022-12-18T03:04:56.098Z,68.20
2022-12-18T03:08:00.116Z,61.97
2022-12-18T03:10:39.546Z,64.95
2022-12-18T03:13:14.682Z,68.55
2022-12-18T03:15:50.726Z,70.65
2022-12-18T03:18:28.598Z,60.53
2022-12-18T03:21:01.285Z,65.15
2022-12-18T03:23:36.161Z,67.05
2022-12-18T03:26:10.076Z,61.47
2022-12-18T03:28:51.746Z,64.82
2022-12-18T03:31:24.225Z,67.53
2022-12-18T03:34:00.107Z,61.30
2022-12-18T03:36:36.450Z,60.00
2022-12-18T03:39:04.184Z,66.43
2022-12-18T03:42:07.359Z,56.00
2022-12-18T03:45:07.738Z,60.07
2022-12-18T03:48:00.244Z,59.30
2022-12-18T03:50:48.112Z,56.28
2022-12-18T03:54:01.430Z,56.88
2022-12-18T03:56:43.354Z,58.70
2022-12-18T03:59:14.950Z,58.33
2022-12-18T04:01:48.789Z,58.83
2022-12-18T04:04:17.815Z,53.83
2022-12-18T04:06:48.250Z,51.13
2022-12-18T04:09:16.046Z,51.75
2022-12-18T04:11:48.164Z,58.60
2022-12-18T04:14:18.268Z,50.00
2022-12-18T04:16:48.781Z,47.83
2022-12-18T04:19:18.097Z,51.05
2022-12-18T04:21:48.247Z,51.65
2022-12-18T04:24:15.422Z,49.40
2022-12-18T04:26:51.842Z,46.63
2022-12-18T04:29:24.211Z,42.78
2022-12-18T04:31:51.611Z,47.38
2022-12-18T04:34:20.050Z,45.17
2022-12-18T04:36:51.086Z,50.33
2022-12-18T04:39:18.530Z,48.88
2022-12-18T04:41:46.589Z,43.30
2022-12-18T04:44:14.441Z,37.72
2022-12-18T04:46:41.591Z,45.10
2022-12-18T04:49:08.755Z,40.20
2022-12-18T04:51:35.850Z,43.80
2022-12-18T04:54:03.108Z,43.20
2022-12-18T04:56:32.138Z,44.25
2022-12-18T04:58:59.248Z,43.53
2022-12-18T05:01:32.576Z,41.40
2022-12-18T05:04:02.670Z,41.30
2022-12-18T05:06:29.865Z,41.20
2022-12-18T05:08:57.027Z,38.25
2022-12-18T05:11:24.144Z,39.42
2022-12-18T05:13:51.206Z,39.10
2022-12-18T05:16:18.397Z,39.50
2022-12-18T05:18:45.615Z,42.95
2022-12-18T05:21:13.846Z,42.13
2022-12-18T05:23:41.339Z,37.15
2022-12-18T05:26:09.076Z,41.63
2022-12-18T05:28:37.769Z,36.22
2022-12-18T05:31:06.723Z,33.15
2022-12-18T05:33:36.172Z,37.05
2022-12-18T05:36:07.384Z,36.90
2022-12-18T05:38:37.368Z,40.13
2022-12-18T05:41:04.888Z,33.30
2022-12-18T05:43:32.774Z,36.53
2022-12-18T05:46:08.291Z,37.63
2022-12-18T05:48:35.548Z,34.95
2022-12-18T05:51:12.295Z,37.27
2022-12-18T05:53:40.284Z,35.03
2022-12-18T05:56:15.616Z,35.83
2022-12-18T05:58:43.085Z,33.50
2022-12-18T06:01:15.132Z,37.22
2022-12-18T06:03:42.765Z,35.27
2022-12-18T06:06:28.266Z,35.25
2022-12-18T06:08:56.594Z,35.33
2022-12-18T06:11:26.461Z,39.08
2022-12-18T06:13:58.723Z,32.90
2022-12-18T06:16:28.178Z,33.33
2022-12-18T06:19:01.691Z,35.47
2022-12-18T06:21:29.795Z,39.50
2022-12-18T06:23:57.367Z,37.38
2022-12-18T06:26:28.240Z,32.05
2022-12-18T06:28:56.018Z,38.03
2022-12-18T06:31:23.297Z,39.88
2022-12-18T06:33:50.663Z,33.08
2022-12-18T06:36:17.952Z,34.97
2022-12-18T06:38:45.658Z,36.78
2022-12-18T06:41:17.187Z,35.47
2022-12-18T06:43:44.925Z,35.63
2022-12-18T06:46:12.670Z,35.95
2022-12-18T06:48:40.539Z,35.58
2022-12-18T06:51:08.051Z,39.08
2022-12-18T06:53:35.425Z,38.63
2022-12-18T06:56:10.564Z,40.92
2022-12-18T06:58:38.700Z,35.70
2022-12-18T07:01:09.524Z,33.35
2022-12-18T07:03:37.562Z,31.30
2022-12-18T07:06:05.454Z,31.23
2022-12-18T07:08:33.713Z,46.33
2022-12-18T07:11:04.999Z,48.08
2022-12-18T07:13:32.834Z,45.22
2022-12-18T07:16:24.809Z,45.28
2022-12-18T07:18:53.984Z,35.97
2022-12-18T07:21:22.398Z,35.00
2022-12-18T07:23:49.678Z,39.83
2022-12-18T07:26:20.890Z,38.20
2022-12-18T07:28:48.592Z,33.60
2022-12-18T07:31:21.539Z,34.73
2022-12-18T07:33:49.740Z,34.75
2022-12-18T07:36:17.271Z,41.15
2022-12-18T07:38:44.421Z,33.05
2022-12-18T07:41:13.943Z,36.17
2022-12-18T07:43:42.836Z,35.37
2022-12-18T07:46:11.067Z,35.65
2022-12-18T07:48:41.004Z,31.83
2022-12-18T07:51:09.178Z,32.15
2022-12-18T07:53:39.411Z,34.47
2022-12-18T07:56:27.124Z,38.07
2022-12-18T07:58:55.927Z,34.90
2022-12-18T08:01:23.139Z,32.95
2022-12-18T08:03:51.661Z,35.85
2022-12-18T08:06:22.775Z,32.75
2022-12-18T08:08:56.300Z,33.97
2022-12-18T08:11:26.348Z,34.78
2022-12-18T08:13:54.035Z,39.65
2022-12-18T08:16:22.676Z,37.47
2022-12-18T08:18:50.467Z,42.67
2022-12-18T08:21:24.832Z,44.23
2022-12-18T08:23:54.617Z,38.40
2022-12-18T08:26:22.782Z,35.60
2022-12-18T08:28:52.843Z,35.88
2022-12-18T08:31:21.034Z,39.85
2022-12-18T08:33:52.329Z,65.97
2022-12-18T08:36:20.510Z,54.67
2022-12-18T08:38:48.312Z,42.67
2022-12-18T08:41:17.788Z,66.25
2022-12-18T08:44:03.298Z,46.53
2022-12-18T08:46:36.959Z,51.20
2022-12-18T08:49:06.198Z,43.17
2022-12-18T08:51:34.333Z,42.53
2022-12-18T08:54:01.747Z,57.67
2022-12-18T08:56:30.941Z,53.13
2022-12-18T08:58:58.433Z,39.67
2022-12-18T09:01:26.193Z,40.85
2022-12-18T09:03:53.373Z,37.03
2022-12-18T09:06:22.579Z,41.60
2022-12-18T09:08:50.112Z,42.97
2022-12-18T09:11:29.372Z,43.33
2022-12-18T09:13:57.578Z,42.15
2022-12-18T09:16:31.620Z,49.80
2022-12-18T09:19:00.463Z,48.92
2022-12-18T09:21:31.638Z,45.30
2022-12-18T09:24:00.554Z,32.80
2022-12-18T09:26:28.515Z,36.22
2022-12-18T09:28:56.564Z,34.47
2022-12-18T09:31:25.517Z,28.35
2022-12-18T09:33:53.164Z,34.30
2022-12-18T09:36:20.343Z,41.10
2022-12-18T09:38:48.886Z,46.97
2022-12-18T09:41:27.321Z,42.10
2022-12-18T09:44:04.162Z,34.25
2022-12-18T09:46:40.884Z,37.72
2022-12-18T09:49:18.698Z,41.67
2022-12-18T09:51:52.195Z,40.80
2022-12-18T09:54:36.769Z,42.60
2022-12-18T09:57:04.356Z,36.05
2022-12-18T09:59:37.998Z,39.33
2022-12-18T10:02:25.732Z,50.30
2022-12-18T10:05:11.351Z,44.08
2022-12-18T10:08:02.723Z,52.47
2022-12-18T10:10:47.232Z,42.13
2022-12-18T10:13:40.498Z,36.33
2022-12-18T10:16:36.915Z,37.00
2022-12-18T10:19:50.135Z,35.20
2022-12-18T10:22:52.031Z,36.60
2022-12-18T10:25:51.811Z,87.13
2022-12-18T10:28:21.062Z,49.15
2022-12-18T10:30:48.382Z,112.63
2022-12-18T10:33:23.317Z,47.90
2022-12-18T10:35:55.671Z,44.40
2022-12-18T10:38:29.448Z,57.30
2022-12-18T10:41:12.341Z,40.85
2022-12-18T10:43:41.753Z,61.90
2022-12-18T10:46:08.903Z,86.05
2022-12-18T10:48:55.005Z,62.67
2022-12-18T10:51:27.082Z,67.05
2022-12-18T10:54:02.038Z,56.45
2022-12-18T10:56:34.568Z,38.73
2022-12-18T10:59:05.918Z,120.45
2022-12-18T11:01:57.117Z,33.20
2022-12-18T11:04:31.471Z,43.78
2022-12-18T11:07:04.432Z,27.80
2022-12-18T11:09:37.262Z,23.47
2022-12-18T11:12:16.972Z,26.88
2022-12-18T11:14:50.824Z,27.00
2022-12-18T11:17:28.315Z,19.92
2022-12-18T11:19:59.173Z,29.73
2022-12-18T11:22:35.773Z,34.10
2022-12-18T11:28:41.872Z,22.90
2022-12-18T11:31:29.674Z,24.13
2022-12-18T11:34:29.129Z,50.20
2022-12-18T11:37:00.560Z,42.47
2022-12-18T11:39:42.958Z,127.72
2022-12-18T11:42:33.473Z,105.80
2022-12-18T11:45:13.627Z,81.43
2022-12-18T11:47:56.170Z,79.05
2022-12-18T11:50:38.298Z,48.93
2022-12-18T11:53:06.420Z,41.20
2022-12-18T11:56:07.531Z,26.20
2022-12-18T11:58:40.732Z,28.02
2022-12-18T12:01:19.239Z,22.65
2022-12-18T12:04:51.342Z,32.67
2022-12-18T12:07:21.173Z,24.73
2022-12-18T12:10:06.902Z,26.20
2022-12-18T12:13:16.958Z,26.17
2022-12-18T12:16:30.771Z,26.25
2022-12-18T12:19:29.074Z,32.37
2022-12-18T12:22:29.317Z,25.00
2022-12-18T12:25:42.575Z,23.90
2022-12-18T12:28:44.197Z,23.30
2022-12-18T12:31:36.632Z,27.70
2022-12-18T12:34:32.554Z,29.07
2022-12-18T12:37:21.168Z,23.58
2022-12-18T12:39:49.083Z,26.70
2022-12-18T12:42:58.495Z,27.50
2022-12-18T12:45:39.433Z,36.20
2022-12-18T12:48:17.637Z,37.70
2022-12-18T12:50:45.546Z,50.05
2022-12-18T12:53:27.617Z,62.70
2022-12-18T12:55:55.744Z,112.40
2022-12-18T12:58:40.451Z,88.07
2022-12-18T13:01:24.287Z,133.20
2022-12-18T13:04:13.823Z,38.97
2022-12-18T13:07:00.682Z,55.20
2022-12-18T13:09:33.357Z,42.55
2022-12-18T13:12:35.036Z,56.13
2022-12-18T13:15:34.285Z,55.90
2022-12-18T13:18:11.532Z,46.20
2022-12-18T13:20:55.222Z,37.67
2022-12-18T13:23:34.219Z,28.48
2022-12-18T13:26:23.366Z,30.55
2022-12-18T13:28:56.458Z,34.47
2022-12-18T13:31:42.167Z,45.25
2022-12-18T13:34:30.729Z,28.42
2022-12-18T13:37:32.985Z,28.48
2022-12-18T13:40:00.232Z,27.10
2022-12-18T13:43:06.056Z,27.30
2022-12-18T13:45:47.453Z,21.58
2022-12-18T13:48:24.511Z,29.63
2022-12-18T13:51:12.389Z,21.27
2022-12-18T13:54:23.476Z,21.00
2022-12-18T13:56:51.170Z,23.03
2022-12-18T13:59:38.974Z,22.70
2022-12-18T14:02:17.459Z,25.73
2022-12-18T14:04:48.251Z,23.15
2022-12-18T14:07:21.674Z,22.95
2022-12-18T14:10:12.651Z,22.30
2022-12-18T14:12:57.603Z,21.20
2022-12-18T14:15:27.557Z,21.20
2022-12-18T14:18:15.422Z,22.15
2022-12-18T14:20:52.606Z,20.67
2022-12-18T14:23:38.430Z,22.73
2022-12-18T14:26:30.673Z,22.58
2022-12-18T14:29:02.234Z,22.67
2022-12-18T14:31:32.699Z,25.38
2022-12-18T14:33:59.783Z,23.25
2022-12-18T14:36:30.199Z,23.77
2022-12-18T14:39:00.114Z,24.23
2022-12-18T14:41:29.377Z,36.25
2022-12-18T14:43:57.866Z,41.25
2022-12-18T14:46:37.316Z,28.73
2022-12-18T14:49:32.557Z,27.43
2022-12-18T14:52:14.145Z,21.73
2022-12-18T14:54:41.865Z,23.30
2022-12-18T14:57:37.206Z,21.30
2022-12-18T15:00:19.778Z,39.00
2022-12-18T15:02:56.862Z,43.53
2022-12-18T15:05:30.757Z,27.55
2022-12-18T15:08:01.595Z,23.80
2022-12-18T15:10:34.285Z,24.95
2022-12-18T15:13:02.432Z,22.45
2022-12-18T15:15:38.341Z,25.83
2022-12-18T15:18:09.714Z,25.65
2022-12-18T15:20:54.284Z,28.23
2022-12-18T15:23:46.376Z,25.42
2022-12-18T15:26:16.576Z,23.73
2022-12-18T15:28:52.955Z,23.33
2022-12-18T15:31:35.978Z,24.58
2022-12-18T15:34:21.461Z,23.55
2022-12-18T15:36:48.832Z,24.75
2022-12-18T15:39:15.893Z,23.10
2022-12-18T15:42:02.967Z,25.80
2022-12-18T15:44:33.380Z,25.02
2022-12-18T15:47:00.482Z,24.20
2022-12-18T15:49:27.658Z,22.40
2022-12-18T15:51:59.111Z,23.75
2022-12-18T15:54:44.941Z,22.70
2022-12-18T15:57:24.990Z,25.48
2022-12-18T15:59:55.194Z,26.40
2022-12-18T16:02:23.715Z,25.77
2022-12-18T16:04:52.977Z,32.25
2022-12-18T16:07:22.919Z,29.37
2022-12-18T16:09:52.318Z,30.17
2022-12-18T16:12:22.971Z,28.60
2022-12-18T16:14:50.386Z,26.45
2022-12-18T16:17:18.080Z,29.13
2022-12-18T16:19:45.372Z,27.03
2022-12-18T16:22:23.419Z,26.05
2022-12-18T16:24:52.987Z,27.27
2022-12-18T16:27:20.905Z,27.55
2022-12-18T16:29:48.883Z,25.63
2022-12-18T16:32:20.616Z,26.77
2022-12-18T16:34:48.376Z,28.17
2022-12-18T16:37:17.151Z,26.50
2022-12-18T16:39:45.083Z,30.63
2022-12-18T16:42:15.386Z,26.10
2022-12-18T16:44:43.402Z,26.63
2022-12-18T16:47:13.253Z,24.63
2022-12-18T16:49:42.956Z,30.42
2022-12-18T16:52:10.022Z,27.17
2022-12-18T16:54:37.371Z,26.35
2022-12-18T16:57:05.518Z,34.13
2022-12-18T16:59:35.626Z,26.17
2022-12-18T17:02:12.096Z,25.83
2022-12-18T17:04:39.334Z,29.92
2022-12-18T17:07:06.393Z,31.45
2022-12-18T17:09:33.511Z,28.47
2022-12-18T17:12:04.282Z,29.17
2022-12-18T17:14:33.826Z,28.08
2022-12-18T17:17:23.349Z,27.45
2022-12-18T17:19:48.356Z,28.30
2022-12-18T17:22:15.360Z,25.97
2022-12-18T17:24:42.426Z,31.33
2022-12-18T17:27:09.578Z,28.42
2022-12-18T17:29:39.038Z,26.42
2022-12-18T17:32:08.376Z,31.17
2022-12-18T17:34:36.556Z,32.37
2022-12-18T17:37:03.694Z,28.00
2022-12-18T17:39:30.849Z,29.48
2022-12-18T17:41:59.390Z,29.90
2022-12-18T17:44:26.659Z,31.98
2022-12-18T17:46:53.885Z,32.37
2022-12-18T17:49:21.737Z,31.38
2022-12-18T17:51:49.507Z,27.17
2022-12-18T17:54:16.780Z,30.17
2022-12-18T17:56:44.485Z,28.50
2022-12-18T17:59:11.903Z,33.43
2022-12-18T18:01:44.619Z,34.90
2022-12-18T18:04:13.720Z,36.78
2022-12-18T18:06:41.083Z,33.13
2022-12-18T18:09:15.657Z,39.55
2022-12-18T18:12:03.474Z,31.13
2022-12-18T18:14:31.275Z,29.95
2022-12-18T18:17:04.032Z,38.15
2022-12-18T18:19:33.184Z,45.08
2022-12-18T18:22:01.361Z,40.58
2022-12-18T18:24:28.461Z,54.97
2022-12-18T18:26:55.572Z,48.90
2022-12-18T18:29:27.874Z,55.30
2022-12-18T18:31:56.235Z,30.55
2022-12-18T18:34:33.635Z,45.45
2022-12-18T18:37:02.278Z,36.93
2022-12-18T18:39:29.907Z,36.25
2022-12-18T18:41:57.152Z,34.05
2022-12-18T18:44:26.040Z,120.45
2022-12-18T18:46:58.229Z,60.92
2022-12-18T18:49:27.429Z,34.00
2022-12-18T18:51:57.136Z,44.78
2022-12-18T18:54:25.403Z,36.95
2022-12-18T18:59:39.746Z,31.08
2022-12-18T19:02:09.242Z,30.83
2022-12-18T19:04:36.533Z,30.42
2022-12-18T19:07:05.566Z,31.63
2022-12-18T19:09:32.693Z,31.65
2022-12-18T19:12:18.330Z,35.30
2022-12-18T19:14:45.479Z,31.77
2022-12-18T19:17:12.578Z,30.10
2022-12-18T19:19:40.203Z,29.23
2022-12-18T19:22:07.565Z,30.10
2022-12-18T19:24:34.817Z,32.17
2022-12-18T19:27:01.861Z,26.37
2022-12-18T19:29:28.902Z,32.08
2022-12-18T19:31:56.178Z,30.42
2022-12-18T19:34:23.331Z,29.63
2022-12-18T19:36:53.910Z,29.92
2022-12-18T19:39:25.195Z,31.20
2022-12-18T19:41:52.677Z,30.65
2022-12-18T19:44:19.776Z,33.20
2022-12-18T19:46:51.418Z,32.33
2022-12-18T19:49:24.139Z,29.17
2022-12-18T19:51:51.347Z,32.93
2022-12-18T19:54:18.609Z,35.35
2022-12-18T19:56:46.536Z,34.42
2022-12-18T19:59:14.675Z,33.65
2022-12-18T20:01:42.093Z,25.00
2022-12-18T20:04:09.307Z,31.10
2022-12-18T20:06:51.278Z,33.05
2022-12-18T20:09:19.868Z,34.15
2022-12-18T20:11:48.105Z,36.25
2022-12-18T20:14:23.143Z,35.70
2022-12-18T20:16:52.091Z,38.93
2022-12-18T20:19:19.724Z,35.92
2022-12-18T20:21:47.782Z,34.30
2022-12-18T20:24:14.938Z,30.92
2022-12-18T20:26:42.358Z,37.17
2022-12-18T20:29:09.586Z,35.93
2022-12-18T20:31:36.767Z,32.60
2022-12-18T20:34:05.040Z,38.42
2022-12-18T20:36:35.323Z,35.80
2022-12-18T20:39:06.414Z,36.17
2022-12-18T20:41:38.448Z,35.10
2022-12-18T20:44:22.334Z,39.72
2022-12-18T20:46:56.743Z,36.60
2022-12-18T20:49:26.403Z,36.33
2022-12-18T20:51:56.508Z,40.63
2022-12-18T20:54:25.842Z,41.23
2022-12-18T20:56:53.225Z,43.75
2022-12-18T20:59:20.818Z,41.72
2022-12-18T21:01:49.515Z,41.15
2022-12-18T21:04:19.197Z,38.03
2022-12-18T21:06:54.177Z,39.10
2022-12-18T21:09:30.008Z,41.88
2022-12-18T21:12:25.356Z,42.63
2022-12-18T21:14:52.477Z,43.22
2022-12-18T21:17:19.533Z,45.25
2022-12-18T21:19:46.523Z,46.07
2022-12-18T21:22:13.663Z,42.35
2022-12-18T21:24:40.775Z,48.53
2022-12-18T21:27:07.836Z,46.15
2022-12-18T21:29:35.086Z,40.90
2022-12-18T21:32:03.664Z,44.80
2022-12-18T21:34:32.361Z,40.92
2022-12-18T21:37:01.579Z,43.85
2022-12-18T21:39:30.207Z,43.20
2022-12-18T21:42:17.225Z,48.35
2022-12-18T21:44:47.137Z,42.80
2022-12-18T21:47:21.431Z,45.60
2022-12-18T21:49:52.491Z,45.35
2022-12-18T21:52:21.638Z,47.50
2022-12-18T21:55:00.745Z,47.35
2022-12-18T21:57:33.509Z,46.17
2022-12-18T22:00:01.975Z,50.78
2022-12-18T22:02:39.438Z,50.03
2022-12-18T22:05:07.278Z,43.92
2022-12-18T22:07:34.414Z,45.97
2022-12-18T22:10:02.162Z,46.07
2022-12-18T22:12:35.686Z,51.85
2022-12-18T22:15:05.999Z,48.10
2022-12-18T22:17:33.079Z,49.80
2022-12-18T22:20:00.155Z,53.00
2022-12-18T22:22:27.194Z,56.30
2022-12-18T22:24:54.330Z,51.95
2022-12-18T22:27:21.460Z,51.47
2022-12-18T22:30:04.014Z,54.78
2022-12-18T22:32:35.508Z,54.17
2022-12-18T22:35:10.420Z,53.27
2022-12-18T22:37:41.298Z,53.17
2022-12-18T22:40:13.853Z,57.28
2022-12-18T22:42:44.174Z,55.28
2022-12-18T22:45:11.627Z,64.85
2022-12-18T22:47:39.254Z,60.30
2022-12-18T22:50:07.037Z,60.50
2022-12-18T22:52:34.131Z,54.33
2022-12-18T22:55:01.282Z,54.22
2022-12-18T22:57:28.444Z,49.45
2022-12-18T22:59:55.517Z,50.83
2022-12-18T23:02:22.800Z,53.22
2022-12-18T23:04:50.134Z,57.55
2022-12-18T23:07:17.376Z,53.28
2022-12-18T23:09:44.868Z,55.45
2022-12-18T23:12:18.505Z,51.50
2022-12-18T23:14:47.101Z,53.30
2022-12-18T23:17:14.225Z,58.30
2022-12-18T23:19:47.145Z,50.83
2022-12-18T23:22:14.395Z,64.80
2022-12-18T23:24:41.383Z,57.07
2022-12-18T23:27:11.499Z,58.42
2022-12-18T23:29:40.139Z,54.85
2022-12-18T23:32:07.902Z,61.30
2022-12-18T23:34:35.125Z,59.58
2022-12-18T23:37:03.513Z,54.97
2022-12-18T23:39:30.592Z,60.70
2022-12-18T23:42:01.529Z,55.92
2022-12-18T23:44:28.808Z,61.97
2022-12-18T23:46:56.101Z,61.90
2022-12-18T23:49:23.243Z,56.83
2022-12-18T23:51:50.501Z,62.15
2022-12-18T23:54:22.646Z,62.20
2022-12-18T23:57:00.835Z,59.80
2022-12-18T23:59:27.888Z,65.18
